Time;durP1;ratioP1;P1;durP2;ratioP2;P2;SDS_P1;SDS_P2;PMS_P1;PMS_P2;Temp;Humidity;BMP_temperature;BMP_pressure;BME280_temperature;BME280_humidity;BME280_pressure;Samples;Min_cycle;Max_cycle;Signal;HPM_P1;HPM_P2
2023/03/07 00:01:55;;;;;;;35.72;22.52;;;;;;;2.77;60.32;98553.63;10428273;28;20127;-64
2023/03/07 00:06:57;;;;;;;33.25;21.75;;;;;;;2.77;60.61;98550.19;10427607;28;20056;-64
2023/03/07 00:11:59;;;;;;;37.03;23.17;;;;;;;2.91;60.36;98540.84;10435619;28;20052;-65
2023/03/07 00:17:01;;;;;;;35.70;23.15;;;;;;;2.75;60.70;98542.53;10434522;28;20053;-64
2023/03/07 00:22:03;;;;;;;35.75;22.63;;;;;;;2.75;60.77;98537.38;10436710;28;20048;-65
2023/03/07 00:27:05;;;;;;;32.67;21.48;;;;;;;2.69;61.19;98531.66;10437789;28;20555;-65
2023/03/07 00:32:06;;;;;;;40.28;23.52;;;;;;;2.70;61.28;98521.25;10433436;28;20045;-64
2023/03/07 00:37:08;;;;;;;36.00;22.30;;;;;;;2.63;61.81;98514.75;10449809;28;20435;-65
2023/03/07 00:42:10;;;;;;;35.08;21.73;;;;;;;2.66;62.00;98509.41;10433512;28;20060;-64
2023/03/07 00:47:12;;;;;;;32.78;21.67;;;;;;;2.60;61.95;98507.16;10437206;28;20879;-64
2023/03/07 00:52:13;;;;;;;32.45;21.00;;;;;;;2.60;62.39;98504.56;10449277;28;20657;-64
2023/03/07 00:57:15;;;;;;;31.98;20.65;;;;;;;2.65;62.65;98492.28;10433727;28;20044;-65
2023/03/07 01:02:17;;;;;;;30.63;20.02;;;;;;;2.70;62.69;98482.53;10433926;28;20119;-64
2023/03/07 01:07:18;;;;;;;31.58;20.50;;;;;;;2.74;63.06;98478.09;10432228;28;20045;-64
2023/03/07 01:12:20;;;;;;;31.13;19.65;;;;;;;2.67;63.23;98467.22;10432360;28;20049;-64
2023/03/07 01:17:22;;;;;;;29.20;19.15;;;;;;;2.74;63.52;98466.00;10431332;28;20588;-64
2023/03/07 01:22:23;;;;;;;27.33;18.27;;;;;;;2.79;63.58;98448.53;10433877;28;20045;-64
2023/03/07 01:27:25;;;;;;;27.25;17.83;;;;;;;2.82;63.46;98439.78;10414696;28;20049;-64
2023/03/07 01:32:26;;;;;;;27.52;18.25;;;;;;;2.74;63.99;98436.78;10432958;28;20058;-64
2023/03/07 01:37:28;;;;;;;24.10;16.50;;;;;;;2.76;64.10;98435.78;10430758;28;20052;-64
2023/03/07 01:42:31;;;;;;;23.77;16.15;;;;;;;2.75;64.47;98423.78;10412720;28;20037;-65
2023/03/07 01:47:33;;;;;;;24.00;15.75;;;;;;;2.78;64.45;98415.06;10432714;28;20053;-65
2023/03/07 01:52:43;;;;;;;21.67;15.68;;;;;;;2.80;64.71;98410.66;10428443;28;20041;-64
2023/03/07 01:57:48;;;;;;;22.27;14.87;;;;;;;2.74;64.92;98408.38;10431313;28;20048;-63
2023/03/07 02:03:08;;;;;;;20.33;14.70;;;;;;;2.78;65.36;98396.97;10432405;28;20183;-63
2023/03/07 02:08:12;;;;;;;20.00;13.93;;;;;;;2.78;64.99;98384.91;10434386;28;20560;-63
2023/03/07 02:13:15;;;;;;;17.83;13.13;;;;;;;2.97;64.55;98374.41;10427786;28;20044;-64
2023/03/07 02:18:24;;;;;;;16.63;12.18;;;;;;;2.93;64.51;98371.19;10430732;28;20070;-64
2023/03/07 02:23:40;;;;;;;15.75;11.23;;;;;;;2.91;64.42;98377.31;10431362;28;20086;-64
2023/03/07 02:28:45;;;;;;;17.48;11.65;;;;;;;2.92;64.59;98372.09;10429065;28;20123;-65
2023/03/07 02:33:47;;;;;;;15.98;11.40;;;;;;;2.93;64.33;98363.44;10428573;28;20139;-65
2023/03/07 02:38:51;;;;;;;15.13;11.43;;;;;;;2.89;64.65;98356.75;10429149;28;20055;-65
2023/03/07 02:43:53;;;;;;;16.40;11.13;;;;;;;2.95;64.34;98351.28;10426925;28;20139;-64
2023/03/07 02:48:54;;;;;;;16.42;11.93;;;;;;;2.99;64.17;98339.84;10428612;28;20482;-64
2023/03/07 02:53:56;;;;;;;15.75;11.65;;;;;;;2.85;64.59;98334.59;10411435;28;20931;-65
2023/03/07 02:58:58;;;;;;;16.25;11.48;;;;;;;2.81;65.04;98340.84;10429614;28;20048;-64
2023/03/07 03:04:00;;;;;;;17.05;11.80;;;;;;;2.87;65.01;98345.69;10450701;28;20136;-64
2023/03/07 03:09:02;;;;;;;17.60;12.65;;;;;;;2.91;64.76;98331.69;10434951;28;20405;-65
2023/03/07 03:14:04;;;;;;;17.30;12.45;;;;;;;2.91;64.68;98336.84;10434802;28;20047;-64
2023/03/07 03:19:06;;;;;;;15.90;12.05;;;;;;;2.85;64.94;98332.03;10435651;28;20405;-64
2023/03/07 03:24:08;;;;;;;16.23;11.90;;;;;;;2.90;64.96;98330.03;10434723;28;20059;-64
2023/03/07 03:29:10;;;;;;;17.35;13.35;;;;;;;3.04;64.43;98327.53;10440009;28;20067;-64
2023/03/07 03:34:12;;;;;;;17.13;13.13;;;;;;;3.07;64.52;98312.78;10435419;28;20037;-65
2023/03/07 03:39:16;;;;;;;19.23;14.75;;;;;;;3.11;64.28;98306.53;10433909;28;20413;-63
2023/03/07 03:44:18;;;;;;;19.42;14.07;;;;;;;3.01;64.33;98303.63;10434927;28;20054;-64
2023/03/07 03:49:20;;;;;;;20.67;14.38;;;;;;;3.04;64.29;98299.13;10436107;28;20109;-63
2023/03/07 03:54:21;;;;;;;20.60;14.95;;;;;;;3.05;63.99;98320.59;10439046;28;20608;-63
2023/03/07 03:59:23;;;;;;;20.48;15.10;;;;;;;3.02;64.26;98307.88;10435159;28;20396;-63
2023/03/07 04:04:25;;;;;;;23.75;16.15;;;;;;;3.00;64.23;98304.53;10434644;28;20516;-64
2023/03/07 04:09:26;;;;;;;22.10;16.02;;;;;;;3.11;63.95;98302.19;10428549;28;20068;-63
2023/03/07 04:14:28;;;;;;;20.10;15.30;;;;;;;2.97;64.38;98292.63;10428259;28;20053;-63
2023/03/07 04:19:29;;;;;;;23.92;16.92;;;;;;;3.04;64.29;98286.22;10426518;28;20168;-64
2023/03/07 04:24:31;;;;;;;24.52;17.50;;;;;;;3.23;63.59;98293.78;10428845;28;20051;-64
2023/03/07 04:29:33;;;;;;;25.58;18.67;;;;;;;3.12;64.13;98283.19;10428608;28;20049;-64
2023/03/07 04:34:34;;;;;;;24.98;18.42;;;;;;;3.19;63.91;98270.78;10443246;28;20055;-63
2023/03/07 04:39:36;;;;;;;23.60;18.40;;;;;;;3.15;63.66;98264.13;10431006;28;20157;-64
2023/03/07 04:44:38;;;;;;;23.70;18.00;;;;;;;3.23;63.67;98267.94;10429094;28;20417;-63
2023/03/07 04:49:39;;;;;;;25.08;17.80;;;;;;;3.18;63.52;98258.78;10426377;28;20037;-64
2023/03/07 04:54:41;;;;;;;23.50;17.90;;;;;;;3.11;63.52;98247.94;10429408;28;20526;-64
2023/03/07 04:59:43;;;;;;;23.83;17.48;;;;;;;3.13;63.38;98243.53;10435654;28;20068;-63
2023/03/07 05:04:44;;;;;;;23.30;17.00;;;;;;;3.15;63.23;98248.63;10433153;28;20412;-65
2023/03/07 05:09:46;;;;;;;23.70;17.00;;;;;;;3.18;62.90;98240.69;10433901;28;20512;-63
2023/03/07 05:14:47;;;;;;;22.85;16.95;;;;;;;3.29;62.55;98230.59;10434474;28;20045;-64
2023/03/07 05:19:49;;;;;;;28.10;19.10;;;;;;;3.31;62.66;98219.25;10432112;28;20244;-64
2023/03/07 05:24:51;;;;;;;21.75;16.08;;;;;;;3.07;62.81;98221.47;10436029;28;20052;-65
2023/03/07 05:29:52;;;;;;;22.73;16.40;;;;;;;3.16;62.57;98214.13;10435188;28;20110;-64
2023/03/07 05:34:54;;;;;;;21.65;16.27;;;;;;;3.14;62.87;98219.38;10433760;28;20091;-64
2023/03/07 05:39:56;;;;;;;21.23;15.85;;;;;;;3.17;62.54;98214.06;10432784;28;20190;-63
2023/03/07 05:44:57;;;;;;;24.48;15.70;;;;;;;3.19;62.50;98208.78;10431968;28;20056;-64
2023/03/07 05:49:59;;;;;;;22.80;15.20;;;;;;;3.06;62.58;98213.81;10435901;28;20079;-64
2023/03/07 05:55:01;;;;;;;21.67;15.13;;;;;;;3.13;62.23;98198.81;10432305;28;20052;-64
2023/03/07 06:00:05;;;;;;;19.92;14.93;;;;;;;3.29;61.90;98210.75;10432717;28;20044;-64
2023/03/07 06:05:07;;;;;;;20.38;15.15;;;;;;;3.37;61.56;98208.56;10435640;28;20048;-64
2023/03/07 06:10:11;;;;;;;20.40;13.93;;;;;;;3.22;61.56;98217.19;10431693;28;20041;-64
2023/03/07 06:15:13;;;;;;;22.17;14.73;;;;;;;3.33;61.53;98212.25;10432927;28;20037;-63
2023/03/07 06:20:15;;;;;;;22.08;13.88;;;;;;;3.39;61.25;98211.91;10429967;28;20421;-63
2023/03/07 06:25:20;;;;;;;18.23;12.95;;;;;;;3.34;61.07;98215.66;10436711;28;20045;-65
2023/03/07 06:30:22;;;;;;;20.52;12.50;;;;;;;3.43;60.92;98212.53;10432359;28;20163;-64
2023/03/07 06:35:23;;;;;;;19.67;13.02;;;;;;;3.42;60.82;98205.69;10430008;28;20521;-64
2023/03/07 06:40:25;;;;;;;23.50;13.43;;;;;;;3.49;60.49;98207.00;10430735;28;20068;-65
2023/03/07 06:45:27;;;;;;;18.05;12.25;;;;;;;3.42;60.43;98201.38;10443370;28;20059;-63
2023/03/07 06:50:28;;;;;;;17.10;12.88;;;;;;;3.42;60.28;98206.53;10430020;28;20183;-64
2023/03/07 06:55:36;;;;;;;18.50;12.02;;;;;;;3.64;60.13;98203.53;10434945;28;20520;-64
2023/03/07 07:00:38;;;;;;;17.98;12.40;;;;;;;3.71;59.65;98203.06;10429498;28;20049;-65
2023/03/07 07:05:40;;;;;;;16.95;12.57;;;;;;;3.82;59.32;98199.88;10430379;28;20052;-65
2023/03/07 07:10:41;;;;;;;16.17;11.93;;;;;;;3.73;59.14;98192.63;10411440;28;20069;-63
2023/03/07 07:15:43;;;;;;;17.02;11.65;;;;;;;3.74;59.06;98192.53;10431918;28;20052;-64
2023/03/07 07:20:45;;;;;;;16.98;11.40;;;;;;;3.83;58.88;98193.75;10433821;28;20349;-64
2023/03/07 07:25:46;;;;;;;16.13;11.40;;;;;;;3.76;58.61;98201.03;10429144;28;20048;-64
2023/03/07 07:30:48;;;;;;;14.82;11.07;;;;;;;3.98;58.19;98192.88;10429487;28;20134;-65
2023/03/07 07:35:50;;;;;;;18.42;11.48;;;;;;;4.15;58.00;98190.06;10430935;28;20060;-64
2023/03/07 07:40:51;;;;;;;17.48;11.55;;;;;;;4.13;57.48;98191.13;10429144;28;20063;-64
2023/03/07 07:45:53;;;;;;;15.05;11.25;;;;;;;4.34;57.58;98198.38;10430101;28;20815;-66
2023/03/07 07:50:59;;;;;;;16.08;11.85;;;;;;;4.53;56.88;98191.13;10429958;28;20054;-63
2023/03/07 07:56:00;;;;;;;19.30;10.90;;;;;;;4.62;56.74;98190.53;10428973;28;20448;-63
2023/03/07 08:01:22;;;;;;;19.70;11.18;;;;;;;4.45;56.01;98193.38;10428533;28;20339;-65
2023/03/07 08:06:26;;;;;;;15.15;11.07;;;;;;;4.76;56.46;98187.06;10427983;28;20041;-63
2023/03/07 08:11:28;;;;;;;17.30;10.60;;;;;;;4.87;55.91;98181.19;10428321;28;20408;-63
2023/03/07 08:16:30;;;;;;;17.65;10.95;;;;;;;5.08;55.13;98183.25;10426563;28;20052;-65
2023/03/07 08:21:32;;;;;;;15.43;11.23;;;;;;;5.13;55.17;98173.41;10423247;28;20063;-65
2023/03/07 08:26:33;;;;;;;16.42;11.50;;;;;;;5.40;54.94;98169.00;10423983;28;20658;-65
2023/03/07 08:31:35;;;;;;;15.93;11.02;;;;;;;5.51;54.42;98168.28;10429685;28;20056;-65
2023/03/07 08:36:38;;;;;;;13.85;10.70;;;;;;;5.57;53.99;98173.88;10431976;28;20572;-65
2023/03/07 08:41:39;;;;;;;14.20;10.60;;;;;;;5.66;54.07;98172.41;10434069;28;20048;-65
2023/03/07 08:46:41;;;;;;;14.32;9.65;;;;;;;5.43;53.90;98173.97;10429770;28;20045;-64
2023/03/07 08:51:46;;;;;;;13.45;9.93;;;;;;;5.68;53.17;98165.38;10434122;28;20045;-64
2023/03/07 08:56:48;;;;;;;14.90;9.93;;;;;;;5.70;53.41;98167.84;10429042;28;20409;-64
2023/03/07 09:01:49;;;;;;;15.35;9.85;;;;;;;5.83;52.74;98166.94;10435600;28;20433;-64
2023/03/07 09:06:51;;;;;;;14.68;9.88;;;;;;;5.80;52.75;98180.09;10429769;28;20041;-64
2023/03/07 09:11:53;;;;;;;14.07;9.75;;;;;;;5.72;52.58;98177.19;10438233;28;20044;-65
2023/03/07 09:16:55;;;;;;;14.77;9.60;;;;;;;5.84;52.47;98181.53;10444856;28;20045;-65
2023/03/07 09:21:56;;;;;;;11.75;8.98;;;;;;;5.71;52.23;98195.47;10441538;28;20076;-64
2023/03/07 09:26:58;;;;;;;13.48;9.30;;;;;;;5.80;52.17;98181.88;10427512;28;20049;-65
2023/03/07 09:32:02;;;;;;;12.32;8.65;;;;;;;5.61;51.88;98194.41;10443547;28;20208;-65
2023/03/07 09:37:04;;;;;;;13.40;9.00;;;;;;;5.55;52.35;98201.66;10429008;28;20048;-64
2023/03/07 09:42:19;;;;;;;13.23;9.23;;;;;;;5.42;52.02;98181.84;10429146;28;20044;-65
2023/03/07 09:48:02;;;;;;;13.20;9.15;;;;;;;5.35;51.82;98175.44;10429130;28;20044;-64
2023/03/07 09:53:05;;;;;;;12.48;9.00;;;;;;;5.33;52.99;98169.50;10425594;28;20059;-65
2023/03/07 09:58:13;;;;;;;12.90;8.45;;;;;;;5.61;53.10;98168.50;10436327;28;20515;-63
2023/03/07 10:03:42;;;;;;;13.57;9.35;;;;;;;5.91;52.83;98161.22;10432867;28;20488;-63
2023/03/07 10:08:44;;;;;;;12.32;8.77;;;;;;;5.99;52.32;98161.50;10422723;28;20041;-67
2023/03/07 10:14:16;;;;;;;12.52;8.82;;;;;;;6.41;51.70;98160.31;10435501;28;20045;-67
2023/03/07 10:19:39;;;;;;;15.25;9.63;;;;;;;6.30;51.78;98159.31;10429707;28;20071;-67
2023/03/07 10:24:50;;;;;;;13.90;9.48;;;;;;;6.13;53.08;98162.22;10431871;28;20139;-67
2023/03/07 10:29:55;;;;;;;13.40;9.52;;;;;;;6.45;52.96;98156.56;10431503;28;20066;-68
2023/03/07 10:35:16;;;;;;;14.90;9.80;;;;;;;6.47;51.79;98144.31;10431057;28;20045;-67
2023/03/07 10:40:30;;;;;;;11.63;8.38;;;;;;;6.66;51.47;98129.03;10430305;28;20287;-67
2023/03/07 10:45:32;;;;;;;14.85;8.73;;;;;;;7.08;51.14;98128.53;10417092;28;20045;-67
2023/03/07 10:50:34;;;;;;;13.75;8.85;;;;;;;7.16;50.13;98114.00;10431176;28;20047;-67
2023/03/07 10:55:41;;;;;;;13.93;8.48;;;;;;;7.15;49.25;98106.31;10426991;28;20045;-67
2023/03/07 11:00:44;;;;;;;11.20;7.80;;;;;;;7.49;49.39;98095.00;10425806;28;20213;-67
2023/03/07 11:05:47;;;;;;;14.43;7.90;;;;;;;7.31;49.15;98095.59;10440194;28;20540;-68
2023/03/07 11:10:49;;;;;;;11.13;8.30;;;;;;;7.42;48.86;98096.44;10427562;28;20045;-67
2023/03/07 11:16:06;;;;;;;11.70;8.43;;;;;;;7.94;48.54;98086.28;10427556;28;20071;-66
2023/03/07 11:21:24;;;;;;;;;;;;;;;7.57;47.89;98087.47;10429931;28;20144;-67
2023/03/07 11:26:26;;;;;;;10.60;7.30;;;;;;;7.81;47.86;98090.75;10430045;28;19924;-67
2023/03/07 11:31:40;;;;;;;10.77;7.88;;;;;;;7.97;47.08;98093.03;10429349;28;20284;-67
2023/03/07 11:36:49;;;;;;;11.80;7.70;;;;;;;7.97;47.36;98090.41;10427391;28;20059;-67
2023/03/07 11:41:55;;;;;;;10.48;7.50;;;;;;;8.15;46.42;98081.19;10466130;28;20049;-67
2023/03/07 11:47:09;;;;;;;12.90;7.28;;;;;;;8.24;46.02;98080.44;10428431;28;20088;-67
2023/03/07 11:52:49;;;;;;;12.00;7.53;;;;;;;8.39;45.72;98060.16;10468575;28;20415;-67
2023/03/07 11:58:03;;;;;;;10.73;7.18;;;;;;;8.35;45.64;98066.56;10467927;28;20395;-67
2023/03/07 12:03:42;;;;;;;10.18;7.07;;;;;;;8.36;45.09;98058.66;10441101;28;20210;-68
2023/03/07 12:09:00;;;;;;;10.90;7.30;;;;;;;8.43;45.54;98058.97;10436383;28;20908;-68
2023/03/07 12:14:04;;;;;;;10.95;6.90;;;;;;;8.01;45.99;98058.81;10476065;28;20044;-67
2023/03/07 12:19:27;;;;;;;9.57;7.25;;;;;;;7.77;45.83;98058.13;10474925;28;20056;-67
2023/03/07 12:24:44;;;;;;;9.00;6.55;;;;;;;7.91;46.07;98057.06;10475919;28;20076;-67
2023/03/07 12:29:56;;;;;;;10.90;7.30;;;;;;;8.19;45.76;98053.97;10450129;28;20060;-67
2023/03/07 12:35:29;;;;;;;8.65;5.95;;;;;;;8.22;45.20;98047.69;10434321;28;20144;-67
2023/03/07 12:40:44;;;;;;;8.18;6.03;;;;;;;8.26;45.39;98038.69;10451808;28;20084;-67
2023/03/07 12:46:02;;;;;;;9.77;5.97;;;;;;;7.87;45.73;98038.25;10475068;28;20044;-67
2023/03/07 12:51:23;;;;;;;8.45;6.00;;;;;;;7.93;46.38;98027.38;10475086;28;20048;-67
2023/03/07 12:56:45;;;;;;;8.40;6.03;;;;;;;8.08;46.21;98027.09;10474465;28;20045;-67
2023/03/07 13:02:01;;;;;;;8.98;5.97;;;;;;;8.65;45.67;98038.88;10468144;28;20505;-68
2023/03/07 13:07:12;;;;;;;11.45;6.72;;;;;;;8.47;44.71;98021.31;10456441;28;20057;-67
2023/03/07 13:12:23;;;;;;;8.68;6.05;;;;;;;8.24;45.73;98028.38;10437912;28;20516;-67
2023/03/07 13:17:31;;;;;;;7.85;5.82;;;;;;;8.16;45.86;98027.34;10465118;28;20119;-67
2023/03/07 13:22:35;;;;;;;8.82;6.05;;;;;;;7.78;46.08;98012.13;10449700;28;20044;-67
2023/03/07 13:27:40;;;;;;;9.32;6.15;;;;;;;7.95;46.46;98014.22;10473391;28;20516;-67
2023/03/07 13:32:47;;;;;;;9.88;6.57;;;;;;;7.93;46.25;98021.31;10473569;28;20420;-67
2023/03/07 13:37:53;;;;;;;10.48;6.40;;;;;;;7.73;46.72;98028.09;10472892;28;20052;-67
2023/03/07 13:42:55;;;;;;;8.48;6.38;;;;;;;7.75;46.80;98033.19;10438195;28;20057;-67
2023/03/07 13:47:57;;;;;;;9.98;6.43;;;;;;;7.86;47.33;98026.19;10473100;28;20102;-67
2023/03/07 13:53:01;;;;;;;9.45;6.03;;;;;;;7.68;47.48;98027.63;10472067;28;20052;-67
2023/03/07 13:58:27;;;;;;;9.90;7.05;;;;;;;7.80;47.24;98026.66;10472283;28;20059;-67
2023/03/07 14:03:37;;;;;;;9.55;6.38;;;;;;;7.52;47.34;98021.97;10432848;28;20049;-67
2023/03/07 14:08:39;;;;;;;11.68;5.82;;;;;;;7.60;47.03;98016.16;10466224;28;20056;-68
2023/03/07 14:13:57;;;;;;;8.73;5.72;;;;;;;8.00;46.03;98004.25;10470109;28;20048;-67
2023/03/07 14:19:15;;;;;;;7.35;5.13;;;;;;;7.88;45.87;98013.88;10471292;28;20060;-67
2023/03/07 14:24:43;;;;;;;8.13;5.40;;;;;;;7.30;45.86;98002.94;10429333;28;20056;-67
2023/03/07 14:29:50;;;;;;;8.10;5.30;;;;;;;7.83;46.08;97995.19;10470535;28;20131;-67
2023/03/07 14:34:52;;;;;;;7.07;5.30;;;;;;;7.84;45.99;98009.88;10470269;28;20485;-67
2023/03/07 14:39:57;;;;;;;8.30;5.50;;;;;;;7.83;45.91;98023.81;10458420;28;20053;-67
2023/03/07 14:45:04;;;;;;;8.95;5.78;;;;;;;7.53;46.37;98017.59;10440024;28;20036;-67
2023/03/07 14:50:11;;;;;;;9.40;6.03;;;;;;;7.54;46.71;98020.06;10464327;28;20056;-69
2023/03/07 14:55:26;;;;;;;10.23;5.60;;;;;;;7.32;45.74;98020.09;10430195;28;20416;-68
2023/03/07 15:00:28;;;;;;;7.82;5.20;;;;;;;7.22;46.50;98026.94;10441582;28;20057;-68
2023/03/07 15:05:36;;;;;;;7.57;5.57;;;;;;;7.34;46.71;98028.59;10433775;28;20126;-67
2023/03/07 15:10:41;;;;;;;9.15;6.60;;;;;;;7.25;47.02;98038.84;10456308;28;20055;-68
2023/03/07 15:15:50;;;;;;;11.00;6.30;;;;;;;7.13;46.74;98032.81;10433728;28;20052;-68
2023/03/07 15:20:55;;;;;;;9.65;6.43;;;;;;;6.81;47.08;98031.81;10427597;28;20167;-68
2023/03/07 15:26:04;;;;;;;7.95;6.22;;;;;;;6.72;47.62;98022.91;10401133;28;20045;-68
2023/03/07 15:31:09;;;;;;;10.60;6.07;;;;;;;6.58;48.26;98028.31;10447058;28;20047;-68
2023/03/07 15:36:12;;;;;;;10.05;6.00;;;;;;;6.59;47.29;98016.16;10435679;28;20126;-67
2023/03/07 15:41:32;;;;;;;9.40;6.18;;;;;;;6.50;48.14;98029.81;10428975;28;20047;-68
2023/03/07 15:46:34;;;;;;;9.88;6.43;;;;;;;6.32;48.38;98011.22;10434023;28;20087;-67
2023/03/07 15:51:36;;;;;;;8.70;6.15;;;;;;;6.55;48.10;98010.34;10428773;28;20045;-68
2023/03/07 15:56:40;;;;;;;10.70;7.03;;;;;;;6.60;48.22;98002.22;10427649;28;20045;-68
2023/03/07 16:01:41;;;;;;;10.68;7.03;;;;;;;6.62;48.17;98003.78;10424100;28;20134;-67
2023/03/07 16:06:44;;;;;;;9.23;6.65;;;;;;;6.58;48.23;98006.69;10435469;28;20072;-67
2023/03/07 16:11:46;;;;;;;10.38;6.93;;;;;;;6.60;48.25;98010.84;10427849;28;20056;-67
2023/03/07 16:16:48;;;;;;;12.13;7.40;;;;;;;6.35;48.67;97991.03;10428708;28;20041;-67
2023/03/07 16:21:50;;;;;;;13.38;8.02;;;;;;;6.30;48.81;98006.16;10425323;28;20057;-68
2023/03/07 16:26:52;;;;;;;10.18;6.97;;;;;;;6.31;48.96;98004.34;10428602;28;20041;-68
2023/03/07 16:31:53;;;;;;;12.38;7.28;;;;;;;6.35;48.77;97995.41;10426048;28;20049;-68
2023/03/07 16:36:55;;;;;;;10.15;7.20;;;;;;;6.38;49.10;98002.16;10430265;28;20136;-68
2023/03/07 16:41:57;;;;;;;12.35;7.97;;;;;;;6.48;49.20;98008.31;10428427;28;20075;-67
2023/03/07 16:47:11;;;;;;;11.07;7.97;;;;;;;6.37;49.20;98006.50;10430526;28;20052;-67
2023/03/07 16:52:13;;;;;;;12.98;7.93;;;;;;;6.28;49.72;98010.63;10413766;28;20485;-67
2023/03/07 16:57:16;;;;;;;12.43;8.23;;;;;;;6.24;49.87;98027.31;10436822;28;20056;-68
2023/03/07 17:02:19;;;;;;;11.68;7.72;;;;;;;6.12;50.26;98012.59;10432175;28;20045;-68
2023/03/07 17:07:22;;;;;;;11.57;7.82;;;;;;;6.12;50.26;98027.38;10434654;28;20160;-68
2023/03/07 17:12:24;;;;;;;11.20;8.00;;;;;;;6.02;50.65;98037.56;10438901;28;20037;-67
2023/03/07 17:17:35;;;;;;;16.88;10.43;;;;;;;5.91;52.73;98042.69;10432530;28;20041;-67
2023/03/07 17:22:36;;;;;;;14.23;9.93;;;;;;;5.90;53.21;98053.19;10427532;28;20051;-67
2023/03/07 17:27:43;;;;;;;11.63;8.02;;;;;;;5.68;54.43;98050.41;10432836;28;20052;-67
2023/03/07 17:32:45;;;;;;;14.70;8.48;;;;;;;5.55;55.51;98074.59;10438561;28;20516;-68
2023/03/07 17:37:50;;;;;;;12.38;9.05;;;;;;;5.62;55.08;98075.03;10436214;28;20045;-67
2023/03/07 17:42:53;;;;;;;12.93;8.85;;;;;;;5.50;55.72;98089.66;10445591;28;20419;-68
2023/03/07 17:47:55;;;;;;;18.98;10.93;;;;;;;5.39;56.24;98101.72;10449418;28;20048;-68
2023/03/07 17:52:58;;;;;;;13.43;9.68;;;;;;;5.53;55.91;98115.38;10439330;28;20052;-69
2023/03/07 17:58:00;;;;;;;12.63;9.35;;;;;;;5.56;56.15;98129.91;10442477;28;20497;-68
2023/03/07 18:03:02;;;;;;;12.00;8.85;;;;;;;5.48;57.03;98127.84;10461092;28;20147;-68
2023/03/07 18:08:04;;;;;;;6.53;4.72;;;;;;;4.90;58.20;98148.19;10434661;28;20210;-67
2023/03/07 18:13:06;;;;;;;6.78;4.45;;;;;;;4.63;58.84;98158.56;10449507;28;20120;-68
2023/03/07 18:18:11;;;;;;;11.48;7.53;;;;;;;4.50;58.83;98173.19;10435456;28;20081;-68
2023/03/07 18:23:14;;;;;;;6.13;4.90;;;;;;;4.43;58.80;98171.09;10441525;28;20045;-68
2023/03/07 18:28:16;;;;;;;6.93;5.15;;;;;;;4.18;59.61;98184.72;10433714;28;20510;-67
2023/03/07 18:33:19;;;;;;;5.90;4.47;;;;;;;4.14;59.68;98191.00;10410627;28;20040;-68
2023/03/07 18:38:21;;;;;;;6.70;5.25;;;;;;;3.99;59.89;98193.69;10424031;28;20053;-61
2023/03/07 18:43:22;;;;;;;8.57;5.10;;;;;;;4.04;59.92;98208.03;10411100;28;20052;-61
2023/03/07 18:48:24;;;;;;;7.78;5.70;;;;;;;4.02;60.10;98212.44;10435256;28;20048;-61
2023/03/07 18:53:26;;;;;;;5.65;4.53;;;;;;;3.91;60.01;98225.19;10431987;28;20050;-60
2023/03/07 18:58:30;;;;;;;7.78;5.75;;;;;;;3.88;60.63;98233.16;10435984;28;20638;-61
2023/03/07 19:03:32;;;;;;;6.25;5.00;;;;;;;3.74;60.90;98236.50;10427837;28;20045;-61
2023/03/07 19:08:34;;;;;;;7.13;5.50;;;;;;;3.57;61.57;98230.66;10421134;28;20075;-61
2023/03/07 19:13:37;;;;;;;11.98;6.88;;;;;;;3.50;61.85;98244.84;10428912;28;20060;-61
2023/03/07 19:18:40;;;;;;;6.97;5.30;;;;;;;3.54;62.02;98248.91;10427158;28;20136;-61
2023/03/07 19:23:45;;;;;;;6.07;4.75;;;;;;;3.47;62.38;98247.63;10426974;28;20088;-61
2023/03/07 19:28:49;;;;;;;5.72;4.20;;;;;;;3.54;62.51;98251.50;10449563;28;20040;-61
2023/03/07 19:33:52;;;;;;;7.30;3.80;;;;;;;3.59;62.22;98262.41;10436038;28;20508;-61
2023/03/07 19:38:57;;;;;;;5.90;4.38;;;;;;;3.44;62.36;98265.88;10426664;28;20444;-62
2023/03/07 19:44:03;;;;;;;5.45;3.92;;;;;;;3.34;62.51;98267.31;10422394;28;20131;-61
2023/03/07 19:49:05;;;;;;;5.03;3.47;;;;;;;3.25;62.91;98265.28;10432865;28;20416;-61
2023/03/07 19:54:10;;;;;;;5.35;3.72;;;;;;;3.26;63.07;98269.50;10443798;28;20049;-61
2023/03/07 19:59:12;;;;;;;8.35;5.18;;;;;;;3.28;63.17;98278.00;10421060;28;20645;-61
2023/03/07 20:04:15;;;;;;;6.50;4.50;;;;;;;3.26;63.46;98292.75;10420551;28;20478;-61
2023/03/07 20:09:17;;;;;;;5.65;4.38;;;;;;;3.12;63.33;98303.03;10439297;28;20102;-61
2023/03/07 20:14:18;;;;;;;7.82;5.55;;;;;;;2.90;63.69;98305.97;10432646;28;20938;-61
2023/03/07 20:19:20;;;;;;;6.63;4.93;;;;;;;2.74;63.80;98302.56;10424766;28;21841;-61
2023/03/07 20:24:22;;;;;;;10.18;7.30;;;;;;;2.71;64.11;98295.81;10427216;28;20063;-61
2023/03/07 20:29:24;;;;;;;6.15;4.90;;;;;;;2.70;64.18;98308.78;10453799;28;20130;-61
2023/03/07 20:34:26;;;;;;;7.57;5.68;;;;;;;2.78;64.00;98333.28;10459598;28;20068;-61
2023/03/07 20:39:28;;;;;;;7.82;6.00;;;;;;;2.73;63.99;98324.94;10455832;28;20040;-61
2023/03/07 20:44:30;;;;;;;6.35;4.97;;;;;;;2.74;63.99;98325.78;10442366;28;20053;-61
2023/03/07 20:49:32;;;;;;;5.55;4.57;;;;;;;2.78;63.87;98330.72;10430656;28;20040;-61
2023/03/07 20:54:33;;;;;;;6.68;4.60;;;;;;;2.74;63.87;98336.94;10434506;28;20568;-61
2023/03/07 20:59:35;;;;;;;5.72;3.92;;;;;;;2.69;64.10;98348.41;10439199;28;20052;-63
2023/03/07 21:04:37;;;;;;;4.50;3.45;;;;;;;2.56;64.41;98348.22;10434151;28;20335;-61
2023/03/07 21:09:40;;;;;;;4.80;3.65;;;;;;;2.58;64.47;98355.91;10436142;28;20053;-61
2023/03/07 21:14:42;;;;;;;5.50;3.83;;;;;;;2.51;64.64;98365.72;10436315;28;20051;-61
2023/03/07 21:19:43;;;;;;;4.47;3.55;;;;;;;2.45;64.85;98360.03;10415781;28;20127;-61
2023/03/07 21:24:45;;;;;;;4.32;3.40;;;;;;;2.41;64.87;98367.09;10433733;28;20186;-61
2023/03/07 21:29:47;;;;;;;4.82;3.75;;;;;;;2.42;64.97;98358.44;10433677;28;20052;-61
2023/03/07 21:34:49;;;;;;;4.55;3.47;;;;;;;2.42;65.09;98366.16;10448317;28;20044;-61
2023/03/07 21:39:51;;;;;;;4.55;3.40;;;;;;;2.25;65.41;98375.69;10445234;28;20501;-61
2023/03/07 21:44:53;;;;;;;5.03;3.55;;;;;;;2.10;66.04;98374.72;10439499;28;20049;-63
2023/03/07 21:49:55;;;;;;;4.85;3.22;;;;;;;2.06;66.07;98378.38;10446023;28;20537;-60
2023/03/07 21:54:57;;;;;;;4.40;3.25;;;;;;;2.20;65.89;98383.66;10430221;28;20041;-61
2023/03/07 21:59:59;;;;;;;4.60;3.47;;;;;;;2.15;65.68;98393.38;10429130;28;20052;-61
2023/03/07 22:05:02;;;;;;;5.20;3.80;;;;;;;2.14;65.99;98389.97;10435070;28;20059;-61
2023/03/07 22:10:06;;;;;;;4.97;3.97;;;;;;;2.34;65.66;98409.59;10429963;28;20088;-61
2023/03/07 22:15:08;;;;;;;5.50;4.30;;;;;;;2.31;65.85;98414.91;10434064;28;20136;-61
2023/03/07 22:20:10;;;;;;;5.25;4.18;;;;;;;2.32;65.73;98405.44;10433057;28;20053;-61
2023/03/07 22:25:12;;;;;;;5.78;4.43;;;;;;;2.47;65.62;98415.81;10429657;28;20127;-61
2023/03/07 22:30:14;;;;;;;5.47;4.32;;;;;;;2.48;65.35;98432.94;10425225;28;20064;-62
2023/03/07 22:35:16;;;;;;;4.70;3.78;;;;;;;2.43;65.39;98429.78;10428076;28;20409;-61
2023/03/07 22:40:18;;;;;;;5.63;4.35;;;;;;;2.53;65.28;98435.28;10429608;28;20045;-61
2023/03/07 22:45:19;;;;;;;6.30;4.90;;;;;;;2.58;65.14;98449.63;10425242;28;20419;-61
2023/03/07 22:50:21;;;;;;;5.07;4.07;;;;;;;2.72;64.88;98451.50;10428174;28;20055;-62
2023/03/07 22:55:23;;;;;;;5.38;4.10;;;;;;;2.77;64.56;98445.19;10429713;28;20111;-61
2023/03/07 23:00:25;;;;;;;5.90;4.63;;;;;;;2.83;64.26;98454.34;10429818;28;20492;-61
2023/03/07 23:05:30;;;;;;;5.05;3.50;;;;;;;2.76;63.55;98453.03;10430623;28;20048;-61
2023/03/07 23:10:32;;;;;;;5.32;3.60;;;;;;;2.73;63.73;98445.41;10431719;28;20056;-61
2023/03/07 23:15:37;;;;;;;5.90;3.78;;;;;;;2.75;63.32;98441.84;10433646;28;20056;-61
2023/03/07 23:20:39;;;;;;;5.35;3.80;;;;;;;2.74;62.95;98440.19;10423065;28;20056;-61
2023/03/07 23:25:41;;;;;;;5.25;4.20;;;;;;;2.82;63.06;98438.06;10441120;28;20123;-61
2023/03/07 23:30:43;;;;;;;5.15;3.47;;;;;;;2.75;62.66;98434.09;10428413;28;20044;-62
2023/03/07 23:35:45;;;;;;;5.05;3.92;;;;;;;2.78;62.76;98441.72;10430395;28;20056;-63